createdAt,value
2023-01-19T02:22:03.200Z,8.00
2023-01-19T02:27:05.454Z,9.30
2023-01-19T02:29:35.471Z,12.20
2023-01-19T02:32:03.283Z,16.60
2023-01-19T02:34:33.469Z,16.50
2023-01-19T02:37:07.285Z,19.40
2023-01-19T02:39:39.870Z,17.50
2023-01-19T02:42:19.208Z,17.40
2023-01-19T02:44:48.587Z,24.10
2023-01-19T02:47:18.606Z,40.70
2023-01-19T02:49:46.191Z,38.40
2023-01-19T02:52:16.754Z,36.60
2023-01-19T02:54:56.810Z,35.70
2023-01-19T02:57:33.803Z,21.80
2023-01-19T03:00:36.761Z,16.10
2023-01-19T03:03:14.798Z,10.60
2023-01-19T03:06:05.817Z,12.40
2023-01-19T03:08:39.946Z,13.40
2023-01-19T03:11:10.828Z,13.20
2023-01-19T03:13:59.403Z,10.20
2023-01-19T03:16:30.045Z,8.80
2023-01-19T03:19:01.980Z,9.90
2023-01-19T03:21:29.051Z,9.30
2023-01-19T03:23:58.323Z,11.30
2023-01-19T03:26:30.380Z,13.00
2023-01-19T03:29:00.634Z,12.70
2023-01-19T03:31:30.748Z,13.20
2023-01-19T03:34:03.252Z,9.40
2023-01-19T03:36:41.811Z,8.80
2023-01-19T03:39:09.389Z,9.70
2023-01-19T03:41:36.457Z,9.80
2023-01-19T08:20:06.951Z,41.10
2023-01-19T08:22:34.094Z,23.80
2023-01-19T08:25:01.049Z,24.30
2023-01-19T08:27:27.987Z,25.90
2023-01-19T08:29:54.981Z,30.80
2023-01-19T08:32:21.943Z,35.40
2023-01-19T08:34:49.071Z,31.70
2023-01-19T08:37:16.058Z,35.20
2023-01-19T08:39:43.348Z,33.70
2023-01-19T08:42:10.305Z,53.40
2023-01-19T08:44:43.765Z,40.80
2023-01-19T08:47:20.252Z,37.30
2023-01-19T08:49:47.336Z,39.30
2023-01-19T08:52:14.543Z,38.20
2023-01-19T08:54:41.770Z,26.80
2023-01-19T09:03:11.805Z,23.10
2023-01-19T09:05:39.138Z,22.70
2023-01-19T09:08:11.117Z,21.30
2023-01-19T09:10:39.263Z,20.70
2023-01-19T09:13:08.690Z,18.80
2023-01-19T09:15:38.325Z,22.50
2023-01-19T09:18:07.448Z,22.10
2023-01-19T09:20:36.332Z,23.50
2023-01-19T09:23:05.236Z,36.20
2023-01-19T09:25:33.020Z,23.80
2023-01-19T09:28:00.830Z,19.10
2023-01-19T09:30:28.280Z,17.90
2023-01-19T09:32:55.275Z,17.90
2023-01-19T09:35:22.706Z,18.80
2023-01-19T09:37:54.541Z,16.90
2023-01-19T09:40:21.684Z,14.40
2023-01-19T09:42:52.424Z,14.80
2023-01-19T09:45:32.088Z,23.40
2023-01-19T09:47:59.804Z,16.00
2023-01-19T09:50:32.601Z,16.00
2023-01-19T09:53:04.602Z,19.60
2023-01-19T09:55:31.503Z,17.70
2023-01-19T09:57:59.028Z,15.00
2023-01-19T10:00:27.827Z,16.40
2023-01-19T10:03:16.636Z,19.90
2023-01-19T10:05:53.102Z,50.60
2023-01-19T10:08:29.828Z,21.20
2023-01-19T10:10:57.498Z,24.30
2023-01-19T10:13:39.433Z,23.10
2023-01-19T10:16:18.857Z,16.30
2023-01-19T10:18:51.945Z,19.10
2023-01-19T10:24:06.610Z,22.20
2023-01-19T10:26:36.582Z,21.30
2023-01-19T10:29:09.952Z,22.50
2023-01-19T10:31:38.286Z,22.60
2023-01-19T10:34:05.541Z,20.10
2023-01-19T10:36:37.198Z,20.50
2023-01-19T10:39:05.844Z,23.40
2023-01-19T10:41:48.005Z,19.10
2023-01-19T10:44:23.007Z,21.80
2023-01-19T10:46:53.645Z,20.90
2023-01-19T10:49:36.006Z,24.90
2023-01-19T10:52:05.287Z,26.70
2023-01-19T10:54:32.901Z,24.10
2023-01-19T10:57:05.350Z,22.40
2023-01-19T10:59:51.321Z,23.90
2023-01-19T11:02:22.910Z,22.20
2023-01-19T14:20:30.235Z,44.10
2023-01-19T14:22:57.342Z,54.70
2023-01-19T14:25:32.104Z,41.60
2023-01-19T14:28:30.604Z,41.70
2023-01-19T14:31:17.845Z,78.30
2023-01-19T14:33:47.127Z,73.10
2023-01-19T14:36:16.776Z,50.10
2023-01-19T14:38:48.060Z,57.80
2023-01-19T14:41:27.269Z,57.00
2023-01-19T14:43:56.301Z,62.70
2023-01-19T14:46:23.859Z,74.70
2023-01-19T14:48:52.258Z,62.80
2023-01-19T14:51:20.657Z,56.60
2023-01-19T14:53:50.037Z,58.60
2023-01-19T14:56:27.247Z,54.70
2023-01-19T14:58:56.038Z,55.30
2023-01-19T15:01:24.159Z,59.80
2023-01-19T15:03:51.140Z,70.60
2023-01-19T15:06:20.042Z,55.40
2023-01-19T15:08:47.487Z,70.50
2023-01-19T15:11:33.306Z,160.00
2023-01-19T15:14:00.596Z,149.70
2023-01-19T15:16:28.674Z,238.70
2023-01-19T15:18:55.801Z,176.10
2023-01-19T15:21:30.269Z,156.10
2023-01-19T15:23:58.690Z,203.40
2023-01-19T15:26:26.600Z,116.60
2023-01-19T15:28:53.669Z,80.90
2023-01-19T15:31:25.153Z,71.40
2023-01-19T15:33:52.315Z,63.70
2023-01-19T15:36:20.725Z,90.30
2023-01-19T15:38:50.361Z,86.00
2023-01-19T15:41:23.609Z,110.90
2023-01-19T15:43:50.835Z,196.60
2023-01-19T15:46:19.265Z,169.80
2023-01-19T15:48:47.358Z,128.80
2023-01-19T15:51:15.664Z,103.80
2023-01-19T15:53:52.653Z,113.80
2023-01-19T15:56:27.055Z,115.40
2023-01-19T15:58:56.147Z,102.40
2023-01-19T16:01:33.255Z,78.90
2023-01-19T16:04:10.471Z,79.80
2023-01-19T16:06:39.030Z,201.00
2023-01-19T16:09:14.257Z,111.20
2023-01-19T16:11:41.351Z,89.90
2023-01-19T16:14:11.214Z,68.20
2023-01-19T16:16:38.549Z,61.80
2023-01-19T16:19:05.563Z,79.90
2023-01-19T16:21:32.598Z,89.40
2023-01-19T16:23:59.616Z,142.80
2023-01-19T16:26:36.698Z,101.40
2023-01-19T16:29:11.029Z,76.30
2023-01-19T16:31:38.518Z,86.00
2023-01-19T16:34:05.604Z,66.50
2023-01-19T16:36:33.413Z,56.40
2023-01-19T16:39:08.687Z,60.80
2023-01-19T16:41:35.713Z,56.80
2023-01-19T16:44:03.031Z,481.40
2023-01-19T16:46:34.065Z,119.50
2023-01-19T16:49:15.159Z,139.00
2023-01-19T16:51:42.323Z,92.50
2023-01-19T16:54:17.304Z,101.70
2023-01-19T16:56:44.427Z,84.70
2023-01-19T16:59:12.430Z,88.60
2023-01-19T17:01:39.513Z,80.00
2023-01-19T19:53:57.386Z,30.80
2023-01-19T19:56:25.626Z,27.60
2023-01-19T19:58:54.633Z,27.80
2023-01-19T20:01:26.082Z,27.10
2023-01-19T20:03:54.680Z,21.10
2023-01-19T20:06:22.924Z,15.20
2023-01-19T20:08:51.333Z,15.30
2023-01-19T20:11:23.655Z,6.90
2023-01-19T20:13:51.244Z,8.30
2023-01-19T20:16:20.964Z,9.10
2023-01-19T20:18:51.051Z,4.40
2023-01-19T20:21:26.040Z,2.20
2023-01-19T20:23:54.357Z,2.90
2023-01-19T20:26:27.579Z,3.30
2023-01-19T20:28:55.320Z,0.40
2023-01-19T20:31:28.395Z,1.20
2023-01-19T20:33:56.863Z,1.20
2023-01-19T20:36:24.970Z,1.50
2023-01-19T20:38:53.378Z,1.80
2023-01-19T20:41:23.677Z,0.50
2023-01-19T20:43:53.910Z,2.60
2023-01-19T20:46:21.017Z,0.40
2023-01-19T20:48:56.934Z,0.90
2023-01-19T20:51:26.229Z,1.90
2023-01-19T20:53:53.869Z,1.10
2023-01-19T20:56:23.143Z,1.50
2023-01-19T20:58:50.502Z,0.80
2023-01-19T21:01:25.596Z,1.30
2023-01-19T21:03:53.004Z,0.70
2023-01-19T21:06:20.681Z,1.30
2023-01-19T21:08:50.175Z,1.00
2023-01-19T21:11:24.057Z,0.90
2023-01-19T21:13:56.138Z,1.10
2023-01-19T21:16:25.161Z,1.30
2023-01-19T21:18:52.560Z,1.00
2023-01-19T21:21:29.917Z,1.90
2023-01-19T21:24:02.708Z,1.30
2023-01-19T21:32:30.639Z,1.90
2023-01-19T21:35:02.461Z,2.00
2023-01-19T21:37:31.170Z,1.10
2023-01-19T21:39:58.565Z,1.60
2023-01-19T21:42:25.682Z,4.90
2023-01-19T21:44:53.343Z,5.40
2023-01-19T21:47:20.505Z,14.90
2023-01-19T21:49:52.665Z,27.10
2023-01-19T21:52:20.323Z,7.10
2023-01-19T21:54:47.327Z,5.10
2023-01-19T21:57:15.306Z,21.20
2023-01-19T21:59:42.380Z,18.80
